Terminal Aerodrome Forecast
Issued by NWS Bismarck, ND

Home | Current Version | Previous Version | Text Only | Print | Product List | Glossary Off
Versions: 1 2 3 4 5 6 7 8 9 10 11 12 13 14 15 16 17

000
FTUS43 KBIS 181507 AAC
TAFBIS
TAF AMD
KBIS 181507Z 1815/1912 01014KT P6SM -RA BKN010 OVC018
     FM181700 36016G24KT P6SM OVC011
     FM190200 01015G21KT P6SM OVC020
     FM190500 02011KT P6SM FEW300=

USA.gov is the U.S. government's official web portal to all federal, state and local government web resources and services.